createdAt,value
2022-10-20T00:03:17.938Z,56.43
2022-10-20T00:10:03.306Z,56.27
2022-10-20T00:16:51.352Z,56.63
2022-10-20T00:23:36.752Z,56.65
2022-10-20T00:30:23.776Z,56.82
2022-10-20T00:37:13.668Z,56.79
2022-10-20T00:44:02.030Z,56.72
2022-10-20T00:50:53.305Z,56.52
2022-10-20T00:57:42.097Z,56.49
2022-10-20T01:04:28.984Z,56.66
2022-10-20T01:11:24.437Z,56.55
2022-10-20T01:18:19.479Z,56.31
2022-10-20T01:25:20.330Z,56.47
2022-10-20T01:32:19.463Z,56.26
2022-10-20T01:39:09.439Z,56.31
2022-10-20T01:45:57.640Z,56.44
2022-10-20T01:52:45.651Z,56.39
2022-10-20T01:59:47.384Z,56.08
2022-10-20T02:06:46.165Z,56.20
2022-10-20T02:13:34.928Z,56.21
2022-10-20T02:20:20.814Z,55.98
2022-10-20T02:27:12.065Z,55.93
2022-10-20T02:34:01.197Z,56.15
2022-10-20T02:40:46.768Z,56.32
2022-10-20T03:01:24.918Z,56.24
2022-10-20T03:08:10.491Z,56.18
2022-10-20T03:14:55.979Z,56.08
2022-10-20T03:21:44.302Z,56.33
2022-10-20T03:28:30.425Z,56.37
2022-10-20T03:35:15.825Z,56.46
2022-10-20T03:42:03.802Z,56.42
2022-10-20T03:48:49.147Z,56.33
2022-10-20T03:55:34.545Z,56.56
2022-10-20T04:02:35.448Z,56.71
2022-10-20T04:09:21.094Z,56.50
2022-10-20T04:16:06.604Z,56.49
2022-10-20T04:22:54.673Z,56.93
2022-10-20T04:29:40.409Z,57.06
2022-10-20T04:36:25.782Z,56.85
2022-10-20T04:43:13.709Z,56.94
2022-10-20T04:49:59.058Z,56.86
2022-10-20T04:56:44.475Z,56.89
2022-10-20T05:03:32.453Z,57.08
2022-10-20T05:10:19.369Z,57.02
2022-10-20T05:17:07.810Z,57.15
2022-10-20T05:24:02.564Z,57.04
2022-10-20T05:30:47.976Z,57.13
2022-10-20T05:37:33.335Z,56.98
2022-10-20T05:44:21.318Z,57.34
2022-10-20T05:51:15.461Z,57.39
2022-10-20T05:58:00.977Z,57.71
2022-10-20T06:04:48.934Z,57.46
2022-10-20T06:11:38.371Z,57.45
2022-10-20T06:18:24.841Z,57.54
2022-10-20T06:25:13.382Z,57.46
2022-10-20T06:31:59.243Z,57.26
2022-10-20T06:38:45.551Z,57.14
2022-10-20T06:45:33.513Z,57.06
2022-10-20T06:52:18.901Z,57.22
2022-10-20T06:59:05.178Z,57.12
2022-10-20T07:05:53.845Z,57.17
2022-10-20T07:12:39.515Z,57.07
2022-10-20T07:19:25.449Z,57.30
2022-10-20T07:26:16.906Z,57.02
2022-10-20T07:33:02.236Z,57.06
2022-10-20T07:39:47.585Z,57.07
2022-10-20T07:46:36.515Z,57.19
2022-10-20T07:53:21.988Z,57.26
2022-10-20T08:00:09.447Z,57.37
2022-10-20T08:07:00.507Z,57.33
2022-10-20T08:13:48.852Z,56.94
2022-10-20T08:20:34.564Z,57.20
2022-10-20T08:27:22.574Z,57.09
2022-10-20T08:34:09.132Z,56.97
2022-10-20T08:40:54.517Z,57.13
2022-10-20T08:47:43.410Z,56.92
2022-10-20T08:54:28.962Z,57.01
2022-10-20T09:01:23.048Z,57.38
2022-10-20T09:08:11.155Z,57.17
2022-10-20T09:14:57.471Z,57.26
2022-10-20T09:21:44.266Z,56.92
2022-10-20T09:28:42.932Z,56.67
2022-10-20T09:35:37.489Z,56.64
2022-10-20T09:42:26.081Z,56.46
2022-10-20T09:49:28.240Z,55.89
2022-10-20T09:56:13.749Z,55.71
2022-10-20T10:03:25.122Z,55.42
2022-10-20T10:10:30.987Z,55.52
2022-10-20T10:17:32.239Z,55.52
2022-10-20T10:24:46.489Z,55.53
2022-10-20T10:31:36.644Z,54.95
2022-10-20T10:38:22.235Z,55.13
2022-10-20T10:45:21.165Z,54.98
2022-10-20T10:52:26.099Z,55.26
2022-10-20T10:59:17.576Z,54.70
2022-10-20T11:06:18.492Z,54.84
2022-10-20T11:13:26.149Z,54.88
2022-10-20T11:20:31.208Z,54.48
2022-10-20T11:27:21.303Z,54.33
2022-10-20T11:34:17.181Z,54.62
2022-10-20T11:41:08.697Z,54.23
2022-10-20T11:48:01.965Z,54.68
2022-10-20T11:55:37.786Z,55.07
2022-10-20T12:03:14.197Z,54.67
2022-10-20T12:10:28.318Z,54.50
2022-10-20T12:17:30.758Z,54.39
2022-10-20T12:24:36.451Z,54.82
2022-10-20T12:31:25.729Z,54.71
2022-10-20T12:38:21.875Z,54.68
2022-10-20T12:45:11.124Z,53.97
2022-10-20T12:52:01.106Z,53.99
2022-10-20T12:59:24.043Z,54.31
2022-10-20T13:06:45.273Z,54.37
2022-10-20T13:14:04.194Z,54.37
2022-10-20T13:20:55.405Z,54.20
2022-10-20T13:27:40.859Z,54.15
2022-10-20T13:34:33.902Z,54.24
2022-10-20T13:41:29.859Z,54.44
2022-10-20T13:48:35.678Z,54.44
2022-10-20T13:55:28.390Z,54.29
2022-10-20T14:02:28.709Z,55.08
2022-10-20T14:09:19.234Z,55.01
2022-10-20T14:16:12.146Z,55.16
2022-10-20T14:22:59.096Z,55.11
2022-10-20T14:29:44.669Z,54.94
2022-10-20T14:36:33.878Z,55.38
2022-10-20T14:43:22.713Z,55.40
2022-10-20T14:50:10.405Z,55.12
2022-10-20T14:57:00.882Z,55.42
2022-10-20T15:03:46.786Z,55.51
2022-10-20T15:10:34.434Z,55.33
2022-10-20T15:17:43.201Z,55.43
2022-10-20T15:24:28.684Z,55.89
2022-10-20T15:31:23.984Z,55.94
2022-10-20T15:38:12.718Z,56.10
2022-10-20T15:44:58.064Z,56.50
2022-10-20T15:51:46.493Z,56.12
2022-10-20T15:58:38.858Z,56.70
2022-10-20T16:05:28.107Z,56.42
2022-10-20T16:12:14.402Z,56.87
2022-10-20T16:19:02.337Z,56.04
2022-10-20T16:25:47.858Z,56.47
2022-10-20T16:32:35.312Z,57.05
2022-10-20T16:39:23.553Z,56.64
2022-10-20T16:46:10.625Z,56.99
2022-10-20T16:52:55.994Z,56.72
2022-10-20T16:59:49.733Z,57.11
2022-10-20T17:06:35.205Z,56.79
2022-10-20T17:13:20.620Z,56.80
2022-10-20T17:20:10.444Z,57.12
2022-10-20T17:26:55.809Z,57.58
2022-10-20T17:33:42.356Z,57.47
2022-10-20T17:40:30.367Z,57.48
2022-10-20T17:47:15.793Z,57.28
2022-10-20T17:54:01.176Z,57.99
2022-10-20T18:00:56.604Z,57.94
2022-10-20T18:07:42.456Z,57.69
2022-10-20T18:14:27.802Z,57.90
2022-10-20T18:21:18.668Z,58.30
2022-10-20T18:28:04.877Z,58.69
2022-10-20T18:34:50.505Z,58.79
2022-10-20T18:41:41.317Z,58.66
2022-10-20T18:48:26.736Z,58.89
2022-10-20T18:55:13.025Z,58.96
2022-10-20T19:02:00.898Z,57.62
2022-10-20T19:08:52.792Z,58.23
2022-10-20T19:15:42.778Z,58.40
2022-10-20T19:22:30.830Z,58.52
2022-10-20T19:29:19.742Z,58.66
2022-10-20T19:36:05.203Z,59.02
2022-10-20T19:42:53.312Z,58.87
2022-10-20T19:49:38.906Z,58.75
2022-10-20T19:56:24.248Z,59.09
2022-10-20T20:03:12.272Z,59.01
2022-10-20T20:09:57.645Z,59.04
2022-10-20T20:23:59.734Z,58.92
2022-10-20T20:30:46.249Z,59.00
2022-10-20T20:37:31.604Z,59.17
2022-10-20T20:44:20.035Z,58.87
2022-10-20T20:51:07.625Z,59.13
2022-10-20T20:57:52.993Z,58.82
2022-10-20T21:04:41.170Z,58.90
2022-10-20T21:11:28.936Z,58.59
2022-10-20T21:18:14.722Z,58.92
2022-10-20T21:25:02.673Z,59.05
2022-10-20T21:31:48.052Z,58.65
2022-10-20T21:38:34.316Z,59.13
2022-10-20T21:45:22.335Z,59.03
2022-10-20T21:52:08.239Z,59.25
2022-10-20T21:58:53.915Z,58.92
2022-10-20T22:05:42.306Z,59.25
2022-10-20T22:12:27.709Z,59.24
2022-10-20T22:19:17.698Z,59.21
2022-10-20T22:26:06.286Z,59.56
2022-10-20T22:32:51.693Z,59.14
2022-10-20T22:39:37.064Z,59.24
2022-10-20T22:46:25.042Z,59.49
2022-10-20T22:53:10.810Z,59.15
2022-10-20T22:59:56.216Z,59.33
2022-10-20T23:06:44.209Z,59.62
2022-10-20T23:13:29.599Z,59.45
2022-10-20T23:20:15.353Z,59.41
2022-10-20T23:27:03.311Z,59.71
2022-10-20T23:33:50.461Z,59.80
2022-10-20T23:40:35.814Z,59.54
2022-10-20T23:47:23.784Z,59.68
2022-10-20T23:54:09.162Z,59.71
